Time;durP1;ratioP1;P1;durP2;ratioP2;P2;SDS_P1;SDS_P2;PMS_P1;PMS_P2;Temp;Humidity;BMP_temperature;BMP_pressure;BME280_temperature;BME280_humidity;BME280_pressure;Samples;Min_cycle;Max_cycle;Signal;HPM_P1;HPM_P2
2022/08/10 00:00:53;;;;;;;12.55;8.43;;;;;;;;;;4376821;32;20161;-67
2022/08/10 00:03:20;;;;;;;11.85;8.63;;;;;;;;;;4350982;32;20094;-67
2022/08/10 00:05:48;;;;;;;11.80;8.68;;;;;;;;;;4338452;32;20087;-66
2022/08/10 00:08:15;;;;;;;14.82;9.65;;;;;;;;;;4362625;32;20171;-68
2022/08/10 00:10:42;;;;;;;18.50;9.95;;;;;;;;;;4350484;32;20185;-67
2022/08/10 00:13:08;;;;;;;15.10;9.73;;;;;;;;;;4350734;32;20086;-67
2022/08/10 00:15:35;;;;;;;12.15;9.30;;;;;;;;;;4350468;32;20177;-67
2022/08/10 00:18:02;;;;;;;14.87;9.77;;;;;;;;;;4350386;32;20069;-67
2022/08/10 00:20:28;;;;;;;15.85;10.23;;;;;;;;;;4350234;32;20082;-67
2022/08/10 00:22:55;;;;;;;15.75;10.13;;;;;;;;;;4363089;32;20093;-67
2022/08/10 00:25:22;;;;;;;16.83;10.18;;;;;;;;;;4362866;32;20097;-68
2022/08/10 00:27:48;;;;;;;17.55;10.35;;;;;;;;;;4350112;32;20078;-68
2022/08/10 00:30:15;;;;;;;17.12;10.80;;;;;;;;;;4362696;32;20089;-67
2022/08/10 00:32:42;;;;;;;16.30;10.50;;;;;;;;;;4376408;32;20077;-67
2022/08/10 00:35:09;;;;;;;17.35;10.32;;;;;;;;;;4362527;32;20086;-67
2022/08/10 00:37:36;;;;;;;15.68;10.02;;;;;;;;;;4376329;32;20153;-68
2022/08/10 00:40:04;;;;;;;14.40;9.23;;;;;;;;;;4363046;32;20089;-67
2022/08/10 00:42:31;;;;;;;19.87;10.65;;;;;;;;;;4337984;32;20162;-66
2022/08/10 00:44:57;;;;;;;15.88;9.90;;;;;;;;;;4362510;32;20165;-67
2022/08/10 00:47:24;;;;;;;15.27;10.10;;;;;;;;;;4359802;32;20101;-67
2022/08/10 00:49:50;;;;;;;19.60;10.90;;;;;;;;;;4335504;32;20086;-67
2022/08/10 00:52:18;;;;;;;17.08;9.98;;;;;;;;;;4347777;32;20102;-68
2022/08/10 00:54:47;;;;;;;13.93;10.13;;;;;;;;;;4360678;32;20156;-68
2022/08/10 00:57:14;;;;;;;15.10;9.60;;;;;;;;;;4360057;32;20086;-67
2022/08/10 00:59:41;;;;;;;18.95;11.10;;;;;;;;;;4359803;32;20542;-67
2022/08/10 01:02:08;;;;;;;18.17;10.93;;;;;;;;;;4360381;32;20089;-66
2022/08/10 01:04:34;;;;;;;18.90;10.70;;;;;;;;;;4359628;32;20086;-67
2022/08/10 01:07:16;;;;;;;14.07;9.80;;;;;;;;;;4347436;32;20094;-68
2022/08/10 01:10:24;;;;;;;14.05;10.07;;;;;;;;;;4359762;32;20069;-68
2022/08/10 01:13:04;;;;;;;15.30;11.18;;;;;;;;;;4343464;32;20094;-67
2022/08/10 01:16:00;;;;;;;14.48;10.40;;;;;;;;;;4360017;32;20156;-68
2022/08/10 01:18:33;;;;;;;16.08;10.65;;;;;;;;;;4359754;32;20086;-68
2022/08/10 01:21:03;;;;;;;19.08;10.90;;;;;;;;;;4359808;32;20489;-67
2022/08/10 01:23:53;;;;;;;17.17;10.52;;;;;;;;;;4359325;32;20452;-67
2022/08/10 01:26:44;;;;;;;16.33;10.77;;;;;;;;;;4359479;32;20074;-67
2022/08/10 01:29:32;;;;;;;14.50;10.35;;;;;;;;;;4359986;32;20074;-68
2022/08/10 01:32:04;;;;;;;15.15;10.43;;;;;;;;;;4362189;32;20498;-68
2022/08/10 01:34:40;;;;;;;15.68;10.85;;;;;;;;;;4337865;32;20068;-66
2022/08/10 01:37:11;;;;;;;18.08;10.73;;;;;;;;;;4350078;32;20472;-67
2022/08/10 01:39:41;;;;;;;14.60;10.43;;;;;;;;;;4363203;32;20078;-68
2022/08/10 01:42:12;;;;;;;14.82;10.40;;;;;;;;;;4362401;32;20086;-68
2022/08/10 01:44:55;;;;;;;18.90;10.25;;;;;;;;;;4362507;32;20078;-67
2022/08/10 01:50:21;;;;;;;17.02;10.20;;;;;;;;;;4347854;33;20090;-67
2022/08/10 01:52:51;;;;;;;14.93;10.10;;;;;;;;;;4347277;33;20072;-68
2022/08/10 01:55:17;;;;;;;15.88;9.90;;;;;;;;;;4348760;33;20066;-67
2022/08/10 01:57:46;;;;;;;13.80;9.88;;;;;;;;;;4347401;33;20268;-66
2022/08/10 02:00:13;;;;;;;14.90;10.30;;;;;;;;;;4347293;33;20079;-66
2022/08/10 02:02:41;;;;;;;18.23;9.50;;;;;;;;;;4347136;33;20101;-66
2022/08/10 02:05:08;;;;;;;13.75;9.80;;;;;;;;;;4334725;33;20079;-66
2022/08/10 02:07:36;;;;;;;14.98;9.65;;;;;;;;;;4347516;33;20533;-68
2022/08/10 02:10:06;;;;;;;13.25;10.05;;;;;;;;;;4347414;33;20090;-67
2022/08/10 02:12:33;;;;;;;15.32;10.15;;;;;;;;;;4346987;33;20523;-67
2022/08/10 02:15:03;;;;;;;17.00;10.85;;;;;;;;;;4347159;33;20078;-67
2022/08/10 02:17:40;;;;;;;17.58;11.00;;;;;;;;;;4346826;33;20083;-68
2022/08/10 02:20:20;;;;;;;15.73;10.85;;;;;;;;;;4347271;33;20094;-68
2022/08/10 02:22:51;;;;;;;17.87;11.10;;;;;;;;;;4346945;32;20086;-69
2022/08/10 02:25:19;;;;;;;17.98;10.82;;;;;;;;;;4347401;33;20078;-67
2022/08/10 02:27:47;;;;;;;15.25;10.88;;;;;;;;;;4347251;33;20179;-68
2022/08/10 02:30:13;;;;;;;18.70;10.65;;;;;;;;;;4346948;32;20099;-66
2022/08/10 02:32:40;;;;;;;18.65;11.27;;;;;;;;;;4346980;33;20571;-68
2022/08/10 02:35:12;;;;;;;22.37;11.40;;;;;;;;;;4347044;33;20082;-68
2022/08/10 02:37:40;;;;;;;13.93;11.05;;;;;;;;;;4346860;33;20543;-68
2022/08/10 02:40:08;;;;;;;16.58;11.23;;;;;;;;;;4347032;33;20105;-68
2022/08/10 02:43:01;;;;;;;16.77;11.27;;;;;;;;;;4346933;33;20075;-67
2022/08/10 02:45:55;;;;;;;17.05;9.80;;;;;;;;;;4359453;32;20086;-67
2022/08/10 02:48:42;;;;;;;15.27;10.25;;;;;;;;;;4355311;32;20109;-67
2022/08/10 02:51:10;;;;;;;;;;;;;;;;;;4334531;33;20571;-68
2022/08/10 02:54:05;;;;;;;13.85;9.65;;;;;;;;;;4347101;33;20022;-68
2022/08/10 02:56:39;;;;;;;14.90;10.10;;;;;;;;;;4344826;33;20540;-68
2022/08/10 02:59:38;;;;;;;13.75;10.75;;;;;;;;;;4346629;33;20070;-68
2022/08/10 03:02:05;;;;;;;23.27;11.48;;;;;;;;;;4348440;32;20162;-67
2022/08/10 03:04:43;;;;;;;14.18;10.90;;;;;;;;;;4334107;33;20179;-67
2022/08/10 03:07:12;;;;;;;16.92;10.88;;;;;;;;;;4334531;33;20095;-68
2022/08/10 03:09:40;;;;;;;16.73;10.98;;;;;;;;;;4345992;33;20074;-68
2022/08/10 03:12:09;;;;;;;17.15;10.93;;;;;;;;;;4322016;33;20090;-67
2022/08/10 03:14:37;;;;;;;15.63;10.55;;;;;;;;;;4346369;33;20539;-67
2022/08/10 03:17:05;;;;;;;17.62;11.75;;;;;;;;;;4346208;33;20106;-67
2022/08/10 03:19:33;;;;;;;13.90;10.45;;;;;;;;;;4334201;33;20078;-68
2022/08/10 03:22:01;;;;;;;16.58;10.43;;;;;;;;;;4346672;33;20079;-68
2022/08/10 03:24:29;;;;;;;16.12;10.50;;;;;;;;;;4346656;33;20159;-67
2022/08/10 03:26:55;;;;;;;18.73;10.70;;;;;;;;;;4334016;33;20094;-68
2022/08/10 03:29:23;;;;;;;13.68;10.73;;;;;;;;;;4345741;33;20497;-68
2022/08/10 03:31:50;;;;;;;14.77;10.05;;;;;;;;;;4346292;33;20093;-67
2022/08/10 03:34:18;;;;;;;15.48;10.98;;;;;;;;;;4333850;33;20090;-67
2022/08/10 03:36:45;;;;;;;21.05;11.10;;;;;;;;;;4333487;33;20075;-68
2022/08/10 03:39:12;;;;;;;15.23;10.75;;;;;;;;;;4334124;33;20074;-67
2022/08/10 03:41:42;;;;;;;14.23;10.65;;;;;;;;;;4345743;33;20134;-66
2022/08/10 03:44:10;;;;;;;15.38;11.10;;;;;;;;;;4345735;33;20525;-67
2022/08/10 03:46:40;;;;;;;14.30;10.32;;;;;;;;;;4345876;33;20093;-68
2022/08/10 03:49:07;;;;;;;17.90;10.95;;;;;;;;;;4363619;32;20089;-67
2022/08/10 03:51:34;;;;;;;16.83;11.20;;;;;;;;;;4362763;32;20162;-68
2022/08/10 03:54:02;;;;;;;16.80;11.05;;;;;;;;;;4362938;32;20141;-68
2022/08/10 03:56:29;;;;;;;19.05;12.18;;;;;;;;;;4363061;32;20076;-68
2022/08/10 03:58:56;;;;;;;19.35;11.43;;;;;;;;;;4363387;32;20069;-67
2022/08/10 04:01:23;;;;;;;18.92;10.77;;;;;;;;;;4363095;32;20109;-67
2022/08/10 04:03:50;;;;;;;18.62;11.18;;;;;;;;;;4363168;32;20078;-69
2022/08/10 04:06:16;;;;;;;18.35;10.18;;;;;;;;;;4363223;32;20152;-68
2022/08/10 04:08:44;;;;;;;16.23;11.27;;;;;;;;;;4362818;32;20113;-66
2022/08/10 04:11:12;;;;;;;16.23;10.60;;;;;;;;;;4363203;32;20096;-67
2022/08/10 04:13:39;;;;;;;16.30;10.82;;;;;;;;;;4362697;32;20082;-68
2022/08/10 04:16:06;;;;;;;15.77;10.77;;;;;;;;;;4362578;32;20078;-66
2022/08/10 04:18:33;;;;;;;16.05;10.23;;;;;;;;;;4376343;32;20074;-67
2022/08/10 04:21:10;;;;;;;16.90;10.93;;;;;;;;;;4338759;32;20103;-67
2022/08/10 04:23:42;;;;;;;15.88;10.40;;;;;;;;;;4363606;32;20126;-66
2022/08/10 04:26:10;;;;;;;13.68;10.18;;;;;;;;;;4350455;32;20097;-68
2022/08/10 04:28:37;;;;;;;21.33;11.73;;;;;;;;;;4362991;32;20074;-68
2022/08/10 04:31:07;;;;;;;17.90;11.60;;;;;;;;;;4362271;32;20576;-67
2022/08/10 04:33:34;;;;;;;16.05;11.45;;;;;;;;;;4362475;32;20088;-67
2022/08/10 04:36:02;;;;;;;18.55;10.23;;;;;;;;;;4362631;32;20278;-68
2022/08/10 04:38:32;;;;;;;16.23;8.98;;;;;;;;;;4376495;32;20074;-68
2022/08/10 04:40:59;;;;;;;19.40;10.63;;;;;;;;;;4362489;32;20088;-68
2022/08/10 04:43:26;;;;;;;16.80;10.15;;;;;;;;;;4362170;32;20081;-66
2022/08/10 04:45:52;;;;;;;19.00;11.12;;;;;;;;;;4362414;32;20073;-66
2022/08/10 04:48:24;;;;;;;19.15;10.18;;;;;;;;;;4362341;32;20089;-67
2022/08/10 04:50:51;;;;;;;18.95;9.52;;;;;;;;;;4362280;32;20101;-68
2022/08/10 04:53:18;;;;;;;14.43;8.90;;;;;;;;;;4376137;32;20077;-66
2022/08/10 04:55:44;;;;;;;17.15;9.63;;;;;;;;;;4350429;32;20082;-68
2022/08/10 04:58:11;;;;;;;12.15;8.38;;;;;;;;;;4361963;32;20589;-67
2022/08/10 05:00:38;;;;;;;18.87;9.90;;;;;;;;;;4362480;32;20077;-67
2022/08/10 05:03:04;;;;;;;17.00;8.60;;;;;;;;;;4337781;32;20512;-67
2022/08/10 05:05:31;;;;;;;14.32;10.57;;;;;;;;;;4353386;32;20211;-67
2022/08/10 05:07:58;;;;;;;13.45;9.25;;;;;;;;;;4353297;32;20081;-68
2022/08/10 05:10:25;;;;;;;12.35;8.82;;;;;;;;;;4353289;32;20165;-67
2022/08/10 05:12:51;;;;;;;14.25;10.00;;;;;;;;;;4365434;32;20171;-67
2022/08/10 05:15:18;;;;;;;11.00;8.40;;;;;;;;;;4365609;32;20096;-71
2022/08/10 05:17:45;;;;;;;12.63;8.98;;;;;;;;;;4352916;32;20081;-67
2022/08/10 05:20:12;;;;;;;10.93;8.82;;;;;;;;;;4340924;32;20073;-67
2022/08/10 05:22:40;;;;;;;11.68;8.40;;;;;;;;;;4379232;32;20092;-68
2022/08/10 05:25:12;;;;;;;11.35;8.02;;;;;;;;;;4364934;32;20515;-69
2022/08/10 05:27:39;;;;;;;13.93;9.50;;;;;;;;;;4379051;32;20106;-68
2022/08/10 05:30:07;;;;;;;10.80;8.07;;;;;;;;;;4364800;32;20162;-68
2022/08/10 05:32:35;;;;;;;11.10;7.72;;;;;;;;;;4365280;32;20078;-68
2022/08/10 05:35:02;;;;;;;10.02;8.07;;;;;;;;;;4352408;32;20069;-67
2022/08/10 05:37:29;;;;;;;10.23;7.43;;;;;;;;;;4352559;32;20166;-67
2022/08/10 05:39:56;;;;;;;10.60;7.68;;;;;;;;;;4364990;32;20137;-69
2022/08/10 05:42:24;;;;;;;12.80;8.18;;;;;;;;;;4364701;32;20066;-68
2022/08/10 05:44:50;;;;;;;10.18;7.05;;;;;;;;;;4364987;32;20162;-67
2022/08/10 05:47:18;;;;;;;18.08;8.65;;;;;;;;;;4378646;32;20165;-67
2022/08/10 05:49:46;;;;;;;11.68;8.68;;;;;;;;;;4352793;32;20165;-67
2022/08/10 05:52:16;;;;;;;16.70;9.10;;;;;;;;;;4365021;32;20085;-68
2022/08/10 05:54:43;;;;;;;14.23;9.38;;;;;;;;;;4352433;32;20073;-69
2022/08/10 05:57:11;;;;;;;13.88;9.40;;;;;;;;;;4364740;32;20067;-68
2022/08/10 05:59:45;;;;;;;19.37;9.27;;;;;;;;;;4378313;32;20487;-67
2022/08/10 06:02:21;;;;;;;15.43;8.73;;;;;;;;;;4378540;32;20123;-67
2022/08/10 06:04:51;;;;;;;12.23;8.07;;;;;;;;;;4378213;32;20086;-68
2022/08/10 06:07:20;;;;;;;12.55;9.60;;;;;;;;;;4364726;32;20093;-69
2022/08/10 06:09:47;;;;;;;10.77;8.23;;;;;;;;;;4365010;32;20074;-68
2022/08/10 06:12:14;;;;;;;13.62;8.88;;;;;;;;;;4340254;32;20089;-66
2022/08/10 06:15:01;;;;;;;10.80;8.30;;;;;;;;;;4352411;32;20162;-68
2022/08/10 06:17:28;;;;;;;;;;;;;;;;;;4354568;32;20113;-66
2022/08/10 06:19:56;;;;;;;12.52;9.18;;;;;;;;;;4352511;32;19969;-66
2022/08/10 06:22:27;;;;;;;14.98;9.48;;;;;;;;;;4351953;32;20082;-67
2022/08/10 06:24:57;;;;;;;15.88;9.25;;;;;;;;;;4352056;32;20082;-67
2022/08/10 06:27:23;;;;;;;11.50;8.05;;;;;;;;;;4351872;32;20082;-67
2022/08/10 06:29:51;;;;;;;12.02;9.15;;;;;;;;;;4339481;32;20101;-67
2022/08/10 06:32:24;;;;;;;11.63;8.25;;;;;;;;;;4364085;32;20455;-67
2022/08/10 06:34:53;;;;;;;11.20;7.32;;;;;;;;;;4365117;32;20075;-66
2022/08/10 06:37:22;;;;;;;11.15;7.85;;;;;;;;;;4351707;32;20081;-67
2022/08/10 06:39:49;;;;;;;11.25;8.52;;;;;;;;;;4363805;32;20582;-67
2022/08/10 06:42:28;;;;;;;12.68;7.82;;;;;;;;;;4351530;32;20085;-67
2022/08/10 06:45:05;;;;;;;16.77;9.77;;;;;;;;;;4351668;32;20081;-67
2022/08/10 06:47:55;;;;;;;10.80;8.02;;;;;;;;;;4351684;32;20102;-68
2022/08/10 06:50:46;;;;;;;10.02;7.60;;;;;;;;;;4351380;32;20085;-68
2022/08/10 06:53:18;;;;;;;13.25;8.40;;;;;;;;;;4377033;32;20072;-66
2022/08/10 06:55:51;;;;;;;9.85;8.57;;;;;;;;;;4363831;32;20082;-66
2022/08/10 06:58:20;;;;;;;12.10;8.60;;;;;;;;;;4339219;32;20074;-68
2022/08/10 07:00:47;;;;;;;11.88;7.25;;;;;;;;;;4339134;32;20503;-68
2022/08/10 07:03:15;;;;;;;13.85;7.87;;;;;;;;;;4363693;32;20172;-67
2022/08/10 07:05:46;;;;;;;11.18;8.40;;;;;;;;;;4363629;32;20085;-67
2022/08/10 07:08:23;;;;;;;10.05;8.00;;;;;;;;;;4364674;32;20077;-68
2022/08/10 07:10:51;;;;;;;9.68;8.05;;;;;;;;;;4351005;32;20491;-67
2022/08/10 07:13:19;;;;;;;11.63;7.70;;;;;;;;;;4364411;32;20086;-68
2022/08/10 07:15:47;;;;;;;9.77;7.60;;;;;;;;;;4363649;32;20151;-68
2022/08/10 07:18:14;;;;;;;8.73;7.35;;;;;;;;;;4363771;32;20101;-68
2022/08/10 07:20:42;;;;;;;9.45;7.55;;;;;;;;;;4363432;32;20161;-67
2022/08/10 07:23:10;;;;;;;9.75;7.85;;;;;;;;;;4363263;32;20156;-67
2022/08/10 07:25:38;;;;;;;11.12;8.32;;;;;;;;;;4350855;32;20520;-69
2022/08/10 07:28:05;;;;;;;11.40;6.95;;;;;;;;;;4362486;32;20080;-67
2022/08/10 07:30:36;;;;;;;12.18;7.45;;;;;;;;;;4363781;32;20503;-67
2022/08/10 07:33:04;;;;;;;9.93;7.53;;;;;;;;;;4350971;32;20085;-66
2022/08/10 07:35:33;;;;;;;9.70;7.55;;;;;;;;;;4351480;32;20161;-67
2022/08/10 07:38:02;;;;;;;9.90;8.32;;;;;;;;;;4339074;32;20161;-68
2022/08/10 07:40:29;;;;;;;11.27;7.68;;;;;;;;;;4351078;32;20074;-68
2022/08/10 07:42:59;;;;;;;10.48;6.85;;;;;;;;;;4363374;32;20085;-67
2022/08/10 07:45:27;;;;;;;11.68;7.25;;;;;;;;;;4350539;32;20070;-66
2022/08/10 07:47:58;;;;;;;9.68;7.30;;;;;;;;;;4363174;32;20098;-66
2022/08/10 07:50:25;;;;;;;8.40;6.93;;;;;;;;;;4350516;32;20065;-67
2022/08/10 07:52:57;;;;;;;9.13;7.25;;;;;;;;;;4338260;32;20063;-67
2022/08/10 07:55:23;;;;;;;9.45;7.03;;;;;;;;;;4338237;32;20576;-68
2022/08/10 07:57:52;;;;;;;9.85;7.35;;;;;;;;;;4338403;32;20171;-68
2022/08/10 08:00:20;;;;;;;8.05;6.65;;;;;;;;;;4363226;32;20073;-66
2022/08/10 08:02:57;;;;;;;9.75;6.28;;;;;;;;;;4377030;32;20062;-68
2022/08/10 08:05:26;;;;;;;8.77;6.82;;;;;;;;;;4362474;32;20161;-68
2022/08/10 08:07:54;;;;;;;9.77;7.40;;;;;;;;;;4363291;32;20070;-67
2022/08/10 08:10:23;;;;;;;9.30;6.50;;;;;;;;;;4350601;32;20073;-67
2022/08/10 08:12:51;;;;;;;9.23;6.53;;;;;;;;;;4363260;32;20149;-68
2022/08/10 08:15:20;;;;;;;9.70;6.85;;;;;;;;;;4350789;32;20077;-68
2022/08/10 08:17:48;;;;;;;8.73;7.12;;;;;;;;;;4362359;32;20149;-68
2022/08/10 08:20:16;;;;;;;7.65;6.57;;;;;;;;;;4349830;32;20175;-66
2022/08/10 08:22:44;;;;;;;8.60;6.97;;;;;;;;;;4362624;32;20065;-66
2022/08/10 08:25:12;;;;;;;7.22;6.35;;;;;;;;;;4376550;32;20074;-67
2022/08/10 08:27:40;;;;;;;8.77;6.57;;;;;;;;;;4362633;32;20082;-67
2022/08/10 08:30:08;;;;;;;7.53;6.53;;;;;;;;;;4376282;32;20093;-67
2022/08/10 08:32:56;;;;;;;8.75;7.62;;;;;;;;;;4349888;32;20146;-67
2022/08/10 08:35:42;;;;;;;8.43;6.35;;;;;;;;;;4364974;32;20086;-67
2022/08/10 08:38:10;;;;;;;9.40;6.85;;;;;;;;;;4375940;32;20093;-67
2022/08/10 08:40:37;;;;;;;7.57;6.30;;;;;;;;;;4362557;32;20165;-66
2022/08/10 08:43:23;;;;;;;8.65;6.70;;;;;;;;;;4362707;32;20167;-66
2022/08/10 08:46:18;;;;;;;10.13;6.95;;;;;;;;;;4376450;32;20144;-66
2022/08/10 08:48:49;;;;;;;10.77;6.68;;;;;;;;;;4375925;32;20127;-66
2022/08/10 08:51:34;;;;;;;8.80;5.65;;;;;;;;;;4362444;32;20090;-67
2022/08/10 08:54:25;;;;;;;8.05;6.35;;;;;;;;;;4362408;32;20162;-68
2022/08/10 08:57:10;;;;;;;9.63;6.57;;;;;;;;;;4350397;32;20500;-67
2022/08/10 09:00:04;;;;;;;9.40;6.90;;;;;;;;;;4350296;32;20186;-66
2022/08/10 09:02:46;;;;;;;8.32;5.65;;;;;;;;;;4376534;32;20167;-67
2022/08/10 09:05:15;;;;;;;9.32;6.43;;;;;;;;;;4362082;32;20081;-68
2022/08/10 09:08:00;;;;;;;9.65;6.78;;;;;;;;;;4361801;32;20062;-67
2022/08/10 09:10:48;;;;;;;9.90;6.20;;;;;;;;;;4362345;32;20078;-67
2022/08/10 09:13:28;;;;;;;9.90;6.62;;;;;;;;;;4375828;32;20086;-67
2022/08/10 09:16:22;;;;;;;10.02;7.10;;;;;;;;;;4349386;32;20605;-67
2022/08/10 09:19:09;;;;;;;8.75;6.87;;;;;;;;;;4349818;32;20079;-67
2022/08/10 09:21:50;;;;;;;8.40;6.65;;;;;;;;;;4362342;32;20081;-68
2022/08/10 09:24:27;;;;;;;10.30;6.68;;;;;;;;;;4350256;32;20138;-68
2022/08/10 09:26:56;;;;;;;7.50;6.20;;;;;;;;;;4349516;32;20158;-68
2022/08/10 09:29:30;;;;;;;9.00;6.45;;;;;;;;;;4337199;32;20568;-67
2022/08/10 09:32:09;;;;;;;8.70;6.60;;;;;;;;;;4362295;32;20145;-66
2022/08/10 09:34:49;;;;;;;8.18;5.30;;;;;;;;;;4349730;32;20508;-68
2022/08/10 09:37:19;;;;;;;9.15;6.10;;;;;;;;;;4361926;32;20137;-67
2022/08/10 09:39:54;;;;;;;8.23;6.87;;;;;;;;;;4349546;32;20175;-68
2022/08/10 09:42:48;;;;;;;11.70;6.25;;;;;;;;;;4362594;32;20078;-68
2022/08/10 09:45:31;;;;;;;7.75;6.05;;;;;;;;;;4361897;32;20191;-67
2022/08/10 09:48:12;;;;;;;22.40;6.25;;;;;;;;;;4375753;32;20085;-68
2022/08/10 09:51:16;;;;;;;7.05;5.30;;;;;;;;;;4337552;32;20516;-68
2022/08/10 09:54:02;;;;;;;8.82;5.75;;;;;;;;;;4378766;32;20090;-68
2022/08/10 09:56:50;;;;;;;6.93;5.68;;;;;;;;;;4353128;32;20173;-68
2022/08/10 09:59:40;;;;;;;8.90;6.12;;;;;;;;;;4365032;32;20078;-69
2022/08/10 10:02:33;;;;;;;9.27;6.85;;;;;;;;;;4352020;32;20081;-67
2022/08/10 10:05:24;;;;;;;8.30;6.65;;;;;;;;;;4364501;32;20062;-68
2022/08/10 10:08:19;;;;;;;10.80;8.07;;;;;;;;;;4378717;32;20186;-67
2022/08/10 10:10:59;;;;;;;8.98;6.75;;;;;;;;;;4372281;32;20150;-67
2022/08/10 10:13:50;;;;;;;9.65;7.57;;;;;;;;;;4365297;32;20074;-68
2022/08/10 10:16:46;;;;;;;9.77;6.80;;;;;;;;;;4364447;32;20520;-67
2022/08/10 10:19:34;;;;;;;7.93;5.93;;;;;;;;;;4364222;32;20129;-68
2022/08/10 10:22:28;;;;;;;11.27;7.03;;;;;;;;;;4364528;32;20069;-67
2022/08/10 10:25:02;;;;;;;11.50;7.05;;;;;;;;;;4339325;32;20517;-67
2022/08/10 10:27:46;;;;;;;9.82;7.35;;;;;;;;;;4364727;32;20182;-66
2022/08/10 10:30:14;;;;;;;8.98;6.85;;;;;;;;;;4352120;32;20105;-66
2022/08/10 10:32:59;;;;;;;16.12;12.10;;;;;;;;;;4351614;32;20070;-68
2022/08/10 10:35:38;;;;;;;8.77;6.50;;;;;;;;;;4364219;32;20104;-67
2022/08/10 10:38:09;;;;;;;6.78;5.70;;;;;;;;;;4351883;32;20062;-68
2022/08/10 10:41:03;;;;;;;9.98;6.25;;;;;;;;;;4366397;32;20094;-67
2022/08/10 10:43:51;;;;;;;7.40;5.75;;;;;;;;;;4347873;32;20074;-67
2022/08/10 10:46:36;;;;;;;8.13;5.55;;;;;;;;;;4378661;32;20580;-68
2022/08/10 10:49:11;;;;;;;11.15;7.85;;;;;;;;;;4364214;32;20082;-68
2022/08/10 10:52:03;;;;;;;8.88;6.20;;;;;;;;;;4364555;32;20492;-67
2022/08/10 10:55:02;;;;;;;10.27;7.03;;;;;;;;;;4363675;32;20070;-68
2022/08/10 10:57:40;;;;;;;8.25;6.40;;;;;;;;;;4364694;32;20085;-67
2022/08/10 11:00:08;;;;;;;8.52;6.70;;;;;;;;;;4364298;32;20084;-67
2022/08/10 11:02:50;;;;;;;8.40;6.68;;;;;;;;;;4363548;32;20492;-67
2022/08/10 11:05:31;;;;;;;9.32;7.05;;;;;;;;;;4364516;32;20094;-67
2022/08/10 11:08:28;;;;;;;11.15;6.62;;;;;;;;;;4364421;32;20078;-67
2022/08/10 11:11:00;;;;;;;11.55;6.40;;;;;;;;;;4364024;32;20074;-66
2022/08/10 11:13:37;;;;;;;9.55;6.65;;;;;;;;;;4351753;32;20070;-68
2022/08/10 11:16:09;;;;;;;10.95;7.12;;;;;;;;;;4351699;32;20166;-68
2022/08/10 11:19:09;;;;;;;9.07;6.45;;;;;;;;;;4378057;32;20516;-68
2022/08/10 11:22:01;;;;;;;8.77;7.00;;;;;;;;;;4351919;32;20093;-68
2022/08/10 11:24:46;;;;;;;7.95;6.15;;;;;;;;;;4377930;32;20089;-67
2022/08/10 11:27:37;;;;;;;9.25;6.93;;;;;;;;;;4364142;32;20169;-67
2022/08/10 11:30:07;;;;;;;10.35;7.00;;;;;;;;;;4378407;32;20168;-67
2022/08/10 11:32:55;;;;;;;7.78;6.53;;;;;;;;;;4351907;32;20137;-68
2022/08/10 11:35:33;;;;;;;10.25;6.47;;;;;;;;;;4351210;32;20089;-68
2022/08/10 11:38:09;;;;;;;8.98;5.75;;;;;;;;;;4363683;32;20077;-67
2022/08/10 11:40:51;;;;;;;8.85;6.20;;;;;;;;;;4363837;32;20069;-68
2022/08/10 11:43:25;;;;;;;7.85;6.53;;;;;;;;;;4363642;32;20097;-68
2022/08/10 11:46:14;;;;;;;6.65;5.15;;;;;;;;;;4351418;32;20070;-67
2022/08/10 11:48:48;;;;;;;6.62;5.80;;;;;;;;;;4338471;32;20090;-67
2022/08/10 11:51:43;;;;;;;7.00;5.57;;;;;;;;;;4350919;32;20085;-67
2022/08/10 11:54:28;;;;;;;8.15;6.35;;;;;;;;;;4363080;32;20074;-68
2022/08/10 11:56:57;;;;;;;9.02;6.28;;;;;;;;;;4350453;32;20512;-66
2022/08/10 12:02:13;;;;;;;7.30;5.87;;;;;;;;;;4352414;32;20081;-67
2022/08/10 12:04:44;;;;;;;6.12;5.18;;;;;;;;;;4362837;32;20175;-67
2022/08/10 12:07:12;;;;;;;7.18;6.28;;;;;;;;;;4350516;32;20093;-68
2022/08/10 12:09:39;;;;;;;8.27;5.35;;;;;;;;;;4350708;32;20072;-68
2022/08/10 12:12:06;;;;;;;8.25;6.53;;;;;;;;;;4363138;32;20089;-68
2022/08/10 12:15:00;;;;;;;6.55;5.22;;;;;;;;;;4362485;32;20065;-69
2022/08/10 12:17:31;;;;;;;7.28;5.80;;;;;;;;;;4362772;32;20151;-67
2022/08/10 12:20:04;;;;;;;9.55;5.10;;;;;;;;;;4350085;32;20141;-65
2022/08/10 12:22:42;;;;;;;11.00;6.18;;;;;;;;;;4363123;32;20571;-66
2022/08/10 12:25:17;;;;;;;6.35;5.30;;;;;;;;;;4350903;32;20078;-65
2022/08/10 12:27:53;;;;;;;6.37;5.40;;;;;;;;;;4338344;32;20085;-65
2022/08/10 12:30:29;;;;;;;7.72;5.78;;;;;;;;;;4350243;32;20101;-65
2022/08/10 12:33:04;;;;;;;8.83;5.87;;;;;;;;;;4363304;32;20082;-65
2022/08/10 12:35:39;;;;;;;6.50;5.10;;;;;;;;;;4350099;32;20058;-65
2022/08/10 12:38:28;;;;;;;7.35;5.43;;;;;;;;;;4350176;32;20084;-65
2022/08/10 12:40:59;;;;;;;7.22;4.80;;;;;;;;;;4349938;32;20081;-65
2022/08/10 12:43:42;;;;;;;6.78;4.85;;;;;;;;;;4350583;32;20098;-64
2022/08/10 12:46:49;;;;;;;5.90;4.82;;;;;;;;;;4362859;32;20077;-66
2022/08/10 12:49:20;;;;;;;7.82;5.03;;;;;;;;;;4362340;32;20094;-65
2022/08/10 12:52:17;;;;;;;5.85;4.70;;;;;;;;;;4351140;32;20092;-65
2022/08/10 12:54:44;;;;;;;8.48;5.03;;;;;;;;;;4357612;32;20074;-65
2022/08/10 12:57:17;;;;;;;7.28;5.00;;;;;;;;;;4349732;32;20096;-68
2022/08/10 12:59:53;;;;;;;8.30;4.78;;;;;;;;;;4337614;32;20087;-65
2022/08/10 13:02:31;;;;;;;7.45;4.25;;;;;;;;;;4362026;32;20086;-64
2022/08/10 13:05:05;;;;;;;6.30;4.70;;;;;;;;;;4362492;32;20174;-64
2022/08/10 13:07:34;;;;;;;7.40;4.78;;;;;;;;;;4362415;32;20146;-65
2022/08/10 13:10:06;;;;;;;5.93;4.68;;;;;;;;;;4350060;32;20155;-65
2022/08/10 13:12:37;;;;;;;7.22;4.72;;;;;;;;;;4349666;32;20179;-63
2022/08/10 13:15:15;;;;;;;6.78;4.82;;;;;;;;;;4362079;32;20188;-64
2022/08/10 13:17:42;;;;;;;5.87;4.78;;;;;;;;;;4376256;32;20101;-65
2022/08/10 13:20:22;;;;;;;7.55;4.80;;;;;;;;;;4349644;32;20097;-65
2022/08/10 13:22:50;;;;;;;6.50;4.95;;;;;;;;;;4362494;32;20157;-67
2022/08/10 13:25:23;;;;;;;10.50;5.15;;;;;;;;;;4363748;32;20093;-65
2022/08/10 13:27:50;;;;;;;5.93;4.87;;;;;;;;;;4365444;32;20081;-66
2022/08/10 13:30:18;;;;;;;7.87;5.47;;;;;;;;;;4340298;32;20077;-65
2022/08/10 13:32:50;;;;;;;7.37;5.40;;;;;;;;;;4365537;32;20160;-65
2022/08/10 13:35:18;;;;;;;7.72;5.53;;;;;;;;;;4352529;32;20066;-67
2022/08/10 13:37:45;;;;;;;6.55;5.32;;;;;;;;;;4353179;32;20090;-65
2022/08/10 13:40:18;;;;;;;8.23;6.12;;;;;;;;;;4378508;32;20082;-67
2022/08/10 13:42:46;;;;;;;7.68;5.95;;;;;;;;;;4352322;32;20540;-66
2022/08/10 13:45:20;;;;;;;8.52;6.10;;;;;;;;;;4364435;32;20085;-65
2022/08/10 13:47:49;;;;;;;9.60;6.60;;;;;;;;;;4364291;32;20097;-65
2022/08/10 13:50:26;;;;;;;7.07;5.55;;;;;;;;;;4352245;32;20251;-66
2022/08/10 13:52:55;;;;;;;8.88;6.18;;;;;;;;;;4364793;32;20089;-66
2022/08/10 13:55:25;;;;;;;12.90;6.93;;;;;;;;;;4364603;32;20101;-68
2022/08/10 13:57:55;;;;;;;8.63;6.87;;;;;;;;;;4352130;32;20105;-67
2022/08/10 14:00:30;;;;;;;7.75;6.15;;;;;;;;;;4340638;32;20085;-65
2022/08/10 14:03:02;;;;;;;8.75;6.45;;;;;;;;;;4339827;32;20527;-66
2022/08/10 14:05:35;;;;;;;8.95;6.03;;;;;;;;;;4378377;32;20177;-65
2022/08/10 14:08:03;;;;;;;8.10;6.62;;;;;;;;;;4351888;32;20100;-66
2022/08/10 14:10:36;;;;;;;9.10;7.40;;;;;;;;;;4364427;32;20073;-66
2022/08/10 14:13:03;;;;;;;10.38;7.95;;;;;;;;;;4365180;32;20069;-66
2022/08/10 14:15:32;;;;;;;12.15;7.47;;;;;;;;;;4351973;32;20496;-67
2022/08/10 14:18:01;;;;;;;11.10;7.55;;;;;;;;;;4364327;32;20090;-68
2022/08/10 14:20:30;;;;;;;9.75;7.37;;;;;;;;;;4351529;32;20462;-68
2022/08/10 14:23:01;;;;;;;11.25;8.30;;;;;;;;;;4351699;32;20082;-68
2022/08/10 14:25:28;;;;;;;9.50;6.93;;;;;;;;;;4378745;32;20155;-67
2022/08/10 14:27:57;;;;;;;9.13;6.75;;;;;;;;;;4364259;32;20464;-67
2022/08/10 14:30:25;;;;;;;10.13;6.85;;;;;;;;;;4351901;32;20162;-67
2022/08/10 14:32:52;;;;;;;12.88;7.62;;;;;;;;;;4351890;32;20156;-68
2022/08/10 14:37:59;;;;;;;10.80;7.07;;;;;;;;;;3857481;37;20468;-68
2022/08/10 14:40:34;;;;;;;10.55;7.00;;;;;;;;;;4393653;32;20069;-67
2022/08/10 14:43:18;;;;;;;11.80;7.68;;;;;;;;;;4418280;32;20100;-67
2022/08/10 14:45:48;;;;;;;12.43;7.28;;;;;;;;;;4405428;32;20169;-67
2022/08/10 14:48:19;;;;;;;10.35;8.30;;;;;;;;;;4405646;32;20107;-66
2022/08/10 14:50:46;;;;;;;10.32;8.30;;;;;;;;;;4392857;32;20164;-68
2022/08/10 14:53:18;;;;;;;10.43;7.45;;;;;;;;;;4417772;32;20081;-68
2022/08/10 14:55:52;;;;;;;11.18;8.23;;;;;;;;;;4405722;32;20451;-67
2022/08/10 14:58:25;;;;;;;11.82;8.70;;;;;;;;;;4418559;32;20561;-67
2022/08/10 15:00:53;;;;;;;12.88;8.57;;;;;;;;;;4418089;32;20529;-67
2022/08/10 15:03:23;;;;;;;10.75;8.32;;;;;;;;;;4418087;32;20069;-68
2022/08/10 15:05:50;;;;;;;12.65;8.50;;;;;;;;;;4418233;32;20089;-67
2022/08/10 15:08:25;;;;;;;8.75;7.50;;;;;;;;;;4418003;32;20080;-68
2022/08/10 15:11:00;;;;;;;14.23;8.60;;;;;;;;;;4393010;32;20061;-67
2022/08/10 15:13:27;;;;;;;11.63;7.40;;;;;;;;;;4392690;32;20154;-66
2022/08/10 15:16:02;;;;;;;10.77;7.57;;;;;;;;;;4404892;32;20162;-68
2022/08/10 15:18:30;;;;;;;9.38;7.40;;;;;;;;;;4418605;32;20100;-67